createdAt,value
2022-08-19T00:00:09.159Z,16.5
2022-08-19T00:01:09.119Z,16.5
2022-08-19T00:02:09.114Z,16.5
2022-08-19T00:03:09.170Z,16.4
2022-08-19T00:04:09.180Z,16.4
2022-08-19T00:05:09.176Z,16.3
2022-08-19T00:06:09.190Z,16.3
2022-08-19T00:07:09.190Z,16.3
2022-08-19T00:08:09.199Z,16.21
2022-08-19T00:09:09.211Z,16.21
2022-08-19T00:10:09.218Z,16.21
2022-08-19T00:11:09.110Z,16.21
2022-08-19T00:12:09.240Z,16.21
2022-08-19T00:13:09.166Z,16.21
2022-08-19T00:14:09.260Z,16.21
2022-08-19T00:15:09.152Z,16.21
2022-08-19T00:16:09.154Z,16.3
2022-08-19T00:17:09.154Z,16.21
2022-08-19T00:18:09.168Z,16.3
2022-08-19T00:19:09.126Z,16.3
2022-08-19T00:20:09.163Z,16.3
2022-08-19T00:21:09.179Z,16.4
2022-08-19T00:22:09.188Z,16.4
2022-08-19T00:23:09.199Z,16.4
2022-08-19T00:24:09.202Z,16.4
2022-08-19T00:25:09.125Z,16.5
2022-08-19T00:26:09.110Z,16.5
2022-08-19T00:27:26.452Z,16.59
2022-08-19T00:28:09.233Z,16.59
2022-08-19T00:29:09.239Z,16.69
2022-08-19T00:30:09.142Z,16.79
2022-08-19T00:31:09.300Z,16.79
2022-08-19T00:32:10.788Z,16.79
2022-08-19T00:33:09.140Z,16.79
2022-08-19T00:34:09.172Z,16.79
2022-08-19T00:35:09.296Z,16.69
2022-08-19T00:36:09.185Z,16.69
2022-08-19T00:37:09.199Z,16.69
2022-08-19T00:38:09.126Z,16.69
2022-08-19T00:39:09.135Z,16.69
2022-08-19T00:40:09.268Z,16.69
2022-08-19T00:41:09.221Z,16.69
2022-08-19T00:42:09.228Z,16.69
2022-08-19T00:43:09.118Z,16.69
2022-08-19T00:44:09.256Z,16.59
2022-08-19T00:45:09.228Z,16.69
2022-08-19T00:46:09.114Z,16.69
2022-08-19T00:47:14.148Z,16.59
2022-08-19T00:48:14.667Z,16.5
2022-08-19T00:49:09.165Z,16.5
2022-08-19T00:50:09.129Z,16.4
2022-08-19T00:51:09.170Z,16.3
2022-08-19T00:52:09.178Z,16.21
2022-08-19T00:53:09.175Z,16.21
2022-08-19T00:54:09.193Z,16.21
2022-08-19T00:55:09.196Z,16.3
2022-08-19T00:56:09.196Z,16.21
2022-08-19T00:57:09.206Z,16.21
2022-08-19T00:58:09.216Z,16.3
2022-08-19T00:59:09.222Z,16.3
2022-08-19T01:00:09.122Z,16.3
2022-08-19T01:01:09.258Z,16.5
2022-08-19T01:02:09.170Z,16.59
2022-08-19T01:03:09.168Z,16.59
2022-08-19T01:04:09.144Z,16.69
2022-08-19T01:05:09.164Z,16.79
2022-08-19T01:06:09.172Z,16.79
2022-08-19T01:07:09.150Z,16.79
2022-08-19T01:08:09.134Z,16.69
2022-08-19T01:09:09.187Z,16.59
2022-08-19T01:10:09.222Z,16.59
2022-08-19T01:11:09.289Z,16.5
2022-08-19T01:12:09.209Z,16.5
2022-08-19T01:13:09.126Z,16.5
2022-08-19T01:14:09.119Z,16.4
2022-08-19T01:15:09.147Z,16.4
2022-08-19T01:16:09.183Z,16.5
2022-08-19T01:17:09.243Z,16.5
2022-08-19T01:18:09.143Z,16.69
2022-08-19T01:19:09.250Z,16.79
2022-08-19T01:20:09.140Z,16.79
2022-08-19T01:21:09.126Z,16.69
2022-08-19T01:22:14.057Z,16.69
2022-08-19T01:23:09.267Z,16.59
2022-08-19T01:24:09.286Z,16.5
2022-08-19T01:25:10.731Z,16.5
2022-08-19T01:26:09.199Z,16.4
2022-08-19T01:27:10.896Z,16.3
2022-08-19T01:28:10.874Z,16.3
2022-08-19T01:29:09.142Z,16.21
2022-08-19T01:30:09.222Z,16.11
2022-08-19T01:31:09.229Z,16.01
2022-08-19T01:32:09.234Z,15.92
2022-08-19T01:33:09.143Z,15.92
2022-08-19T01:34:09.267Z,15.83
2022-08-19T01:35:09.151Z,15.73
2022-08-19T01:36:09.151Z,15.55
2022-08-19T01:37:09.260Z,15.45
2022-08-19T01:38:09.376Z,15.45
2022-08-19T01:39:09.140Z,15.45
2022-08-19T01:40:09.558Z,15.45
2022-08-19T01:41:10.865Z,15.45
2022-08-19T01:42:09.191Z,15.45
2022-08-19T01:43:09.190Z,15.55
2022-08-19T01:44:17.703Z,15.55
2022-08-19T01:45:09.213Z,15.73
2022-08-19T01:46:09.207Z,15.73
2022-08-19T01:47:09.221Z,15.83
2022-08-19T01:48:09.221Z,15.83
2022-08-19T01:49:09.228Z,15.92
2022-08-19T01:50:09.248Z,16.01
2022-08-19T01:51:09.210Z,16.11
2022-08-19T01:52:09.253Z,16.21
2022-08-19T01:53:09.166Z,16.3
2022-08-19T01:54:09.175Z,16.3
2022-08-19T01:55:09.138Z,16.21
2022-08-19T01:56:09.178Z,16.21
2022-08-19T01:57:09.180Z,16.11
2022-08-19T01:58:09.296Z,16.21
2022-08-19T01:59:09.316Z,16.21
2022-08-19T02:00:09.400Z,16.21
2022-08-19T02:01:09.261Z,16.21
2022-08-19T02:02:09.174Z,16.21
2022-08-19T02:03:09.227Z,16.11
2022-08-19T02:04:09.138Z,16.21
2022-08-19T02:05:11.412Z,16.21
2022-08-19T02:06:09.181Z,16.11
2022-08-19T02:07:09.288Z,16.11
2022-08-19T02:08:09.144Z,16.11
2022-08-19T02:09:09.159Z,16.11
2022-08-19T02:10:10.534Z,16.11
2022-08-19T02:11:09.180Z,16.01
2022-08-19T02:12:09.282Z,16.01
2022-08-19T02:13:09.284Z,16.01
2022-08-19T02:14:09.188Z,16.01
2022-08-19T02:15:09.202Z,16.01
2022-08-19T02:16:09.140Z,16.01
2022-08-19T02:17:09.149Z,16.11
2022-08-19T02:18:09.256Z,16.11
2022-08-19T02:19:09.231Z,16.01
2022-08-19T02:20:09.229Z,16.01
2022-08-19T02:21:09.242Z,16.01
2022-08-19T02:22:09.145Z,15.92
2022-08-19T02:23:13.926Z,15.92
2022-08-19T02:24:09.158Z,15.92
2022-08-19T02:25:09.142Z,16.01
2022-08-19T02:26:09.271Z,15.92
2022-08-19T02:27:09.238Z,16.01
2022-08-19T02:28:09.156Z,16.01
2022-08-19T02:29:09.150Z,16.01
2022-08-19T02:30:09.191Z,16.01
2022-08-19T02:31:09.201Z,15.92
2022-08-19T02:32:09.212Z,15.92
2022-08-19T02:33:09.211Z,16.01
2022-08-19T02:34:09.185Z,15.92
2022-08-19T02:35:11.961Z,15.92
2022-08-19T02:36:09.235Z,15.83
2022-08-19T02:37:09.185Z,15.83
2022-08-19T02:38:09.246Z,15.83
2022-08-19T02:39:09.263Z,15.83
2022-08-19T02:40:12.511Z,15.83
2022-08-19T02:41:09.183Z,15.83
2022-08-19T02:42:09.172Z,15.92
2022-08-19T02:43:09.169Z,15.83
2022-08-19T02:44:30.018Z,15.83
2022-08-19T02:45:09.188Z,15.92
2022-08-19T02:46:09.190Z,15.83
2022-08-19T02:47:09.205Z,15.73
2022-08-19T02:48:21.015Z,15.83
2022-08-19T02:49:09.221Z,15.92
2022-08-19T02:50:09.209Z,15.92
2022-08-19T02:51:09.159Z,15.83
2022-08-19T02:52:09.247Z,15.83
2022-08-19T02:53:09.168Z,15.83
2022-08-19T02:54:09.223Z,15.83
2022-08-19T02:55:09.251Z,15.92
2022-08-19T02:56:09.261Z,15.92
2022-08-19T02:57:09.178Z,15.92
2022-08-19T02:58:09.170Z,15.92
2022-08-19T02:59:09.177Z,15.92
2022-08-19T03:00:09.178Z,15.92
2022-08-19T03:01:09.234Z,15.92
2022-08-19T03:02:09.214Z,15.92
2022-08-19T03:03:09.198Z,15.83
2022-08-19T03:04:09.207Z,15.73
2022-08-19T03:05:09.145Z,15.64
2022-08-19T03:06:09.213Z,15.55
2022-08-19T03:07:11.085Z,15.55
2022-08-19T03:08:09.236Z,15.45
2022-08-19T03:09:09.246Z,15.36
2022-08-19T03:10:09.165Z,15.36
2022-08-19T03:11:09.258Z,15.27
2022-08-19T03:12:09.264Z,15.27
2022-08-19T03:13:09.346Z,15.18
2022-08-19T03:14:09.412Z,15.18
2022-08-19T03:15:09.462Z,15.09
2022-08-19T03:16:09.535Z,15
2022-08-19T03:17:09.147Z,15
2022-08-19T03:18:09.515Z,14.91
2022-08-19T03:19:09.223Z,14.91
2022-08-19T03:20:09.595Z,14.91
2022-08-19T03:21:12.313Z,14.91
2022-08-19T03:22:09.220Z,14.91
2022-08-19T03:23:09.225Z,14.91
2022-08-19T03:24:09.235Z,14.82
2022-08-19T03:25:09.225Z,14.82
2022-08-19T03:26:16.510Z,14.82
2022-08-19T03:27:09.149Z,14.73
2022-08-19T03:28:09.167Z,14.73
2022-08-19T03:29:09.222Z,14.65
2022-08-19T03:30:11.755Z,14.65
2022-08-19T03:31:44.252Z,14.65
2022-08-19T03:32:09.182Z,14.65
2022-08-19T03:33:09.190Z,14.65
2022-08-19T03:34:09.194Z,14.65
2022-08-19T03:35:09.192Z,14.65
2022-08-19T03:36:09.310Z,14.65
2022-08-19T03:37:09.319Z,14.73
2022-08-19T03:38:09.233Z,14.73
2022-08-19T03:39:09.223Z,14.73
2022-08-19T03:40:09.309Z,14.73
2022-08-19T03:41:09.170Z,14.73
2022-08-19T03:42:32.041Z,14.73
2022-08-19T03:43:09.256Z,14.82
2022-08-19T03:44:09.306Z,14.82
2022-08-19T03:45:09.266Z,14.91
2022-08-19T03:46:09.172Z,15
2022-08-19T03:47:09.176Z,14.91
2022-08-19T03:48:09.292Z,15.09
2022-08-19T03:49:09.192Z,15.09
2022-08-19T03:50:09.301Z,15.09
2022-08-19T03:51:09.306Z,15.18
2022-08-19T03:52:09.216Z,15.18
2022-08-19T03:53:09.216Z,15.09
2022-08-19T03:54:09.221Z,15.09
2022-08-19T03:55:09.176Z,15.09
2022-08-19T03:56:09.313Z,15
2022-08-19T03:57:09.502Z,14.91
2022-08-19T03:58:09.201Z,14.91
2022-08-19T03:59:09.334Z,14.82
2022-08-19T04:00:12.916Z,14.82
2022-08-19T04:01:09.331Z,14.82
2022-08-19T04:02:09.194Z,14.73
2022-08-19T04:03:09.179Z,14.73
2022-08-19T04:04:09.554Z,14.65
2022-08-19T04:05:09.290Z,14.65
2022-08-19T04:06:09.198Z,14.65
2022-08-19T04:07:09.168Z,14.65
2022-08-19T04:08:13.363Z,14.65
2022-08-19T04:09:09.154Z,14.65
2022-08-19T04:10:10.679Z,14.65
2022-08-19T04:11:09.221Z,14.65
2022-08-19T04:12:09.251Z,14.65
2022-08-19T04:13:09.246Z,14.65
2022-08-19T04:14:09.265Z,14.65
2022-08-19T04:15:09.263Z,14.65
2022-08-19T04:16:09.267Z,14.65
2022-08-19T04:17:09.267Z,14.65
2022-08-19T04:18:09.264Z,14.65
2022-08-19T04:19:09.202Z,14.65
2022-08-19T04:20:09.184Z,14.65
2022-08-19T04:21:09.176Z,14.65
2022-08-19T04:22:09.192Z,14.65
2022-08-19T04:23:09.201Z,14.56
2022-08-19T04:24:09.203Z,14.56
2022-08-19T04:25:09.306Z,14.56
2022-08-19T04:26:09.348Z,14.56
2022-08-19T04:27:09.217Z,14.56
2022-08-19T04:28:09.233Z,14.56
2022-08-19T04:29:12.309Z,14.56
2022-08-19T04:30:09.267Z,14.47
2022-08-19T04:31:09.251Z,14.47
2022-08-19T04:32:09.914Z,14.47
2022-08-19T04:33:09.266Z,14.47
2022-08-19T04:34:09.268Z,14.47
2022-08-19T04:35:17.405Z,14.47
2022-08-19T04:36:09.162Z,14.47
2022-08-19T04:37:09.188Z,14.47
2022-08-19T04:38:09.194Z,14.47
2022-08-19T04:39:09.296Z,14.47
2022-08-19T04:40:09.444Z,14.56
2022-08-19T04:41:09.209Z,14.56
2022-08-19T04:42:09.223Z,14.56
2022-08-19T04:43:09.221Z,14.47
2022-08-19T04:44:09.178Z,14.47
2022-08-19T04:45:09.474Z,14.56
2022-08-19T04:46:09.234Z,14.65
2022-08-19T04:47:11.405Z,14.65
2022-08-19T04:48:19.740Z,14.65
2022-08-19T04:49:09.159Z,14.65
2022-08-19T04:50:09.187Z,14.65
2022-08-19T04:51:09.281Z,14.65
2022-08-19T04:52:09.184Z,14.73
2022-08-19T04:53:09.288Z,14.82
2022-08-19T04:54:09.297Z,14.82
2022-08-19T04:55:09.327Z,14.82
2022-08-19T04:56:09.172Z,14.82
2022-08-19T04:57:09.267Z,14.73
2022-08-19T04:58:09.270Z,14.73
2022-08-19T04:59:09.291Z,14.73
2022-08-19T05:00:09.333Z,14.73
2022-08-19T05:01:09.393Z,14.65
2022-08-19T05:02:09.385Z,14.65
2022-08-19T05:03:09.478Z,14.65
2022-08-19T05:04:09.468Z,14.65
2022-08-19T05:05:09.509Z,14.65
2022-08-19T05:06:09.507Z,14.56
2022-08-19T05:07:09.341Z,14.65
2022-08-19T05:08:09.519Z,14.56
2022-08-19T05:09:09.171Z,14.56
2022-08-19T05:10:09.198Z,14.56
2022-08-19T05:11:09.653Z,14.56
2022-08-19T05:12:09.211Z,14.56
2022-08-19T05:13:09.211Z,14.56
2022-08-19T05:14:09.352Z,14.56
2022-08-19T05:15:09.609Z,14.56
2022-08-19T05:16:09.174Z,14.65
2022-08-19T05:17:26.697Z,14.65
2022-08-19T05:18:09.349Z,14.65
2022-08-19T05:19:09.253Z,14.65
2022-08-19T05:20:09.359Z,14.73
2022-08-19T05:21:09.225Z,14.73
2022-08-19T05:22:09.246Z,14.73
2022-08-19T05:23:12.738Z,14.73
2022-08-19T05:24:09.438Z,14.82
2022-08-19T05:25:13.177Z,14.82
2022-08-19T05:26:09.205Z,14.91
2022-08-19T05:27:09.204Z,14.91
2022-08-19T05:28:09.660Z,14.91
2022-08-19T05:29:09.256Z,15
2022-08-19T05:30:09.172Z,15
2022-08-19T05:31:09.225Z,15
2022-08-19T05:32:09.236Z,15
2022-08-19T05:33:09.167Z,15
2022-08-19T05:34:18.279Z,15
2022-08-19T05:35:09.264Z,15
2022-08-19T05:36:09.268Z,15
2022-08-19T05:37:09.266Z,15
2022-08-19T05:38:09.273Z,15
2022-08-19T05:39:09.282Z,15
2022-08-19T05:40:09.314Z,15.09
2022-08-19T05:41:09.174Z,15.09
2022-08-19T05:42:09.320Z,15.09
2022-08-19T05:43:09.309Z,15.09
2022-08-19T05:44:09.237Z,15.09
2022-08-19T05:45:09.197Z,15.09
2022-08-19T05:46:09.202Z,15.18
2022-08-19T05:47:09.285Z,15.18
2022-08-19T05:48:09.224Z,15.18
2022-08-19T05:49:09.220Z,15.18
2022-08-19T05:50:09.241Z,15.27
2022-08-19T05:51:09.180Z,15.27
2022-08-19T05:52:09.182Z,15.36
2022-08-19T05:53:09.169Z,15.36
2022-08-19T05:54:09.203Z,15.36
2022-08-19T05:55:09.320Z,15.36
2022-08-19T05:56:09.234Z,15.36
2022-08-19T05:57:09.217Z,15.36
2022-08-19T05:58:09.235Z,15.36
2022-08-19T05:59:09.246Z,15.45
2022-08-19T06:00:09.176Z,15.55
2022-08-19T06:01:09.184Z,15.64
2022-08-19T06:02:09.269Z,15.73
2022-08-19T06:03:11.823Z,15.83
2022-08-19T06:04:09.353Z,15.92
2022-08-19T06:05:09.207Z,15.83
2022-08-19T06:06:09.176Z,15.83
2022-08-19T06:07:12.869Z,15.83
2022-08-19T06:08:09.177Z,15.73
2022-08-19T06:09:09.181Z,15.73
2022-08-19T06:10:09.234Z,15.73
2022-08-19T06:11:09.224Z,15.64
2022-08-19T06:12:09.173Z,15.64
2022-08-19T06:13:09.182Z,15.64
2022-08-19T06:14:09.212Z,15.64
2022-08-19T06:15:09.183Z,15.64
2022-08-19T06:16:09.213Z,15.64
2022-08-19T06:17:09.401Z,15.64
2022-08-19T06:18:09.326Z,15.64
2022-08-19T06:19:09.174Z,15.55
2022-08-19T06:20:09.190Z,15.55
2022-08-19T06:21:09.229Z,15.55
2022-08-19T06:22:09.201Z,15.55
2022-08-19T06:23:09.177Z,15.55
2022-08-19T06:24:09.262Z,15.55
2022-08-19T06:25:09.260Z,15.45
2022-08-19T06:26:09.262Z,15.45
2022-08-19T06:27:09.286Z,15.45
2022-08-19T06:28:14.937Z,15.45
2022-08-19T06:29:09.197Z,15.45
2022-08-19T06:30:09.205Z,15.45
2022-08-19T06:31:09.215Z,15.36
2022-08-19T06:32:09.316Z,15.27
2022-08-19T06:33:09.205Z,15.27
2022-08-19T06:34:09.221Z,15.36
2022-08-19T06:35:09.179Z,15.45
2022-08-19T06:36:09.164Z,15.45
2022-08-19T06:37:09.224Z,15.45
2022-08-19T06:38:09.251Z,15.45
2022-08-19T06:39:09.247Z,15.55
2022-08-19T06:40:09.294Z,15.55
2022-08-19T06:41:09.258Z,15.55
2022-08-19T06:42:10.937Z,15.64
2022-08-19T06:43:09.442Z,15.64
2022-08-19T06:44:09.288Z,15.64
2022-08-19T06:45:09.652Z,15.73
2022-08-19T06:46:09.293Z,15.83
2022-08-19T06:47:09.438Z,15.83
2022-08-19T06:48:09.215Z,15.83
2022-08-19T06:49:09.411Z,15.83
2022-08-19T06:50:09.225Z,15.92
2022-08-19T06:51:09.230Z,15.92
2022-08-19T06:52:09.345Z,16.01
2022-08-19T06:53:09.348Z,16.01
2022-08-19T06:54:19.305Z,16.01
2022-08-19T06:55:09.261Z,16.01
2022-08-19T06:56:09.266Z,16.11
2022-08-19T06:57:09.287Z,16.3
2022-08-19T06:58:09.277Z,16.4
2022-08-19T06:59:09.255Z,16.5
2022-08-19T07:00:12.865Z,16.5
2022-08-19T07:01:09.324Z,16.59
2022-08-19T07:02:09.222Z,16.69
2022-08-19T07:03:09.918Z,16.69
2022-08-19T07:04:09.216Z,16.79
2022-08-19T07:05:09.208Z,16.89
2022-08-19T07:06:09.823Z,16.89
2022-08-19T07:07:20.032Z,16.89
2022-08-19T07:08:09.232Z,16.89
2022-08-19T07:09:09.194Z,16.99
2022-08-19T07:10:09.356Z,16.99
2022-08-19T07:11:09.533Z,16.99
2022-08-19T07:12:09.187Z,16.99
2022-08-19T07:13:09.246Z,17.19
2022-08-19T07:14:19.576Z,17.29
2022-08-19T07:15:09.286Z,17.29
2022-08-19T07:16:09.294Z,17.49
2022-08-19T07:17:09.290Z,17.49
2022-08-19T07:18:11.888Z,17.6
2022-08-19T07:19:15.989Z,17.7
2022-08-19T07:20:09.710Z,17.8
2022-08-19T07:21:09.434Z,17.91
2022-08-19T07:22:09.286Z,18.01
2022-08-19T07:23:09.194Z,18.01
2022-08-19T07:24:09.184Z,17.91
2022-08-19T07:25:09.246Z,18.01
2022-08-19T07:26:09.277Z,18.01
2022-08-19T07:27:15.151Z,18.12
2022-08-19T07:28:09.380Z,18.22
2022-08-19T07:29:09.277Z,18.33
2022-08-19T07:30:12.231Z,18.33
2022-08-19T07:31:09.293Z,18.43
2022-08-19T07:32:13.403Z,18.43
2022-08-19T07:33:09.651Z,18.43
2022-08-19T07:34:09.541Z,18.54
2022-08-19T07:35:09.622Z,18.76
2022-08-19T07:36:09.209Z,18.87
2022-08-19T07:37:09.196Z,18.76
2022-08-19T07:38:09.407Z,18.87
2022-08-19T07:39:09.345Z,18.98
2022-08-19T07:40:14.676Z,18.98
2022-08-19T07:41:09.350Z,19.09
2022-08-19T07:42:09.456Z,18.98
2022-08-19T07:43:12.333Z,19.09
2022-08-19T07:44:09.275Z,18.98
2022-08-19T07:45:09.287Z,18.87
2022-08-19T07:47:48.073Z,18.98
2022-08-19T07:48:09.285Z,19.2
2022-08-19T07:49:09.261Z,19.2
2022-08-19T07:50:09.198Z,19.2
2022-08-19T07:51:09.214Z,19.09
2022-08-19T07:52:09.211Z,19.2
2022-08-19T07:53:09.220Z,18.76
2022-08-19T07:54:09.240Z,18.87
2022-08-19T07:55:40.110Z,18.98
2022-08-19T07:56:09.343Z,19.09
2022-08-19T07:57:09.249Z,18.98
2022-08-19T07:58:09.246Z,18.87
2022-08-19T07:59:09.256Z,18.98
2022-08-19T08:00:09.267Z,19.2
2022-08-19T08:01:09.198Z,19.2
2022-08-19T08:02:09.342Z,18.98
2022-08-19T08:03:09.293Z,19.09
2022-08-19T08:04:09.192Z,19.42
2022-08-19T08:05:09.195Z,19.65
2022-08-19T08:06:09.317Z,19.65
2022-08-19T08:07:09.200Z,19.76
2022-08-19T08:08:09.216Z,19.65
2022-08-19T08:09:09.443Z,19.65
2022-08-19T08:10:20.411Z,19.76
2022-08-19T08:11:09.230Z,19.76
2022-08-19T08:12:30.768Z,19.76
2022-08-19T08:13:11.166Z,19.87
2022-08-19T08:14:09.195Z,19.99
2022-08-19T08:15:12.495Z,20.22
2022-08-19T08:16:10.173Z,20.1
2022-08-19T08:17:10.737Z,20.22
2022-08-19T08:18:09.292Z,20.33
2022-08-19T08:19:20.392Z,20.1
2022-08-19T08:20:09.288Z,19.99
2022-08-19T08:21:09.609Z,20.1
2022-08-19T08:22:09.410Z,19.87
2022-08-19T08:23:09.316Z,19.76
2022-08-19T08:24:09.558Z,19.76
2022-08-19T08:25:09.427Z,19.99
2022-08-19T08:26:09.337Z,20.22
2022-08-19T08:27:11.176Z,20.22
2022-08-19T08:28:09.365Z,19.99
2022-08-19T08:29:12.288Z,19.99
2022-08-19T08:30:09.340Z,20.1
2022-08-19T08:31:09.869Z,20.22
2022-08-19T08:32:14.728Z,19.99
2022-08-19T08:33:09.385Z,20.22
2022-08-19T08:34:09.287Z,20.57
2022-08-19T08:35:09.472Z,20.57
2022-08-19T08:36:09.533Z,20.69
2022-08-19T08:37:09.302Z,20.69
2022-08-19T08:38:09.245Z,20.8
2022-08-19T08:39:09.219Z,20.92
2022-08-19T08:40:13.038Z,21.16
2022-08-19T08:41:09.324Z,21.53
2022-08-19T08:42:10.028Z,21.32
2022-08-19T08:43:11.270Z,21.41
2022-08-19T08:44:09.337Z,21.41
2022-08-19T08:45:09.339Z,21.16
2022-08-19T08:46:09.268Z,20.69
2022-08-19T08:47:09.255Z,20.8
2022-08-19T08:48:23.913Z,20.8
2022-08-19T08:49:09.627Z,21.04
2022-08-19T08:50:09.223Z,21.16
2022-08-19T08:51:09.354Z,21.41
2022-08-19T08:52:09.290Z,21.42
2022-08-19T08:53:09.300Z,21.25
2022-08-19T08:54:09.901Z,21.18
2022-08-19T08:55:10.247Z,21.07
2022-08-19T08:56:09.366Z,20.91
2022-08-19T08:57:09.210Z,20.77
2022-08-19T08:58:09.331Z,20.01
2022-08-19T08:59:09.348Z,20.14
2022-08-19T09:00:15.205Z,20.3
2022-08-19T09:01:09.285Z,20.67
2022-08-19T09:02:09.277Z,20.79
2022-08-19T09:03:09.262Z,20.53
2022-08-19T09:04:09.260Z,20.53
2022-08-19T09:05:09.290Z,20.34
2022-08-19T09:06:11.863Z,19.98
2022-08-19T09:07:22.881Z,19.98
2022-08-19T09:08:09.279Z,19.85
2022-08-19T09:09:12.046Z,19.18
2022-08-19T09:10:10.482Z,19.47
2022-08-19T09:11:09.389Z,19.8
2022-08-19T09:12:09.407Z,19.88
2022-08-19T09:13:09.708Z,20.16
2022-08-19T09:14:19.151Z,20.3
2022-08-19T09:15:09.377Z,19.84
2022-08-19T09:16:09.529Z,19.8
2022-08-19T09:17:09.535Z,19.62
2022-08-19T09:18:09.247Z,19.42
2022-08-19T09:19:09.502Z,19.64
2022-08-19T09:20:09.478Z,19.52
2022-08-19T09:21:09.327Z,18.97
2022-08-19T09:22:09.279Z,19.17
2022-08-19T09:23:09.233Z,18.87
2022-08-19T09:24:09.583Z,18.85
2022-08-19T09:25:09.649Z,19.05
2022-08-19T09:26:09.302Z,19.24
2022-08-19T09:27:18.526Z,19.08
2022-08-19T09:28:22.547Z,18.97
2022-08-19T09:29:09.476Z,18.7
2022-08-19T09:30:09.369Z,18.76
2022-08-19T09:31:09.264Z,18.84
2022-08-19T09:32:26.086Z,18.97
2022-08-19T09:33:09.349Z,18.48
2022-08-19T09:34:09.270Z,19.01
2022-08-19T09:35:09.257Z,19.39
2022-08-19T09:36:09.288Z,19.22
2022-08-19T09:37:09.215Z,18.68
2022-08-19T09:38:09.226Z,18.64
2022-08-19T09:39:16.532Z,17.8
2022-08-19T09:40:09.407Z,17.66
2022-08-19T09:41:09.296Z,17.61
2022-08-19T09:42:16.562Z,17.66
2022-08-19T09:43:10.053Z,17.32
2022-08-19T09:44:09.312Z,17.63
2022-08-19T09:45:10.230Z,17.56
2022-08-19T09:46:09.226Z,17.77
2022-08-19T09:47:09.268Z,17.25
2022-08-19T09:48:09.448Z,17.35
2022-08-19T09:49:09.213Z,17.36
2022-08-19T09:50:09.251Z,17.26
2022-08-19T09:51:12.062Z,17.46
2022-08-19T09:52:09.262Z,17.78
2022-08-19T09:53:09.282Z,18.09
2022-08-19T09:54:11.265Z,17.7
2022-08-19T09:55:09.290Z,17.47
2022-08-19T09:56:09.416Z,17.33
2022-08-19T09:57:09.299Z,16.42
2022-08-19T09:58:09.500Z,16.41
2022-08-19T09:59:09.339Z,16.32
2022-08-19T10:00:09.225Z,16.63
2022-08-19T10:01:09.278Z,17.13
2022-08-19T10:02:10.907Z,17.01
2022-08-19T10:03:09.229Z,16.97
2022-08-19T10:04:19.835Z,17.2
2022-08-19T10:05:09.247Z,17.43
2022-08-19T10:06:14.940Z,17.64
2022-08-19T10:07:09.300Z,17.11
2022-08-19T10:08:13.013Z,16.99
2022-08-19T10:09:09.392Z,17.04
2022-08-19T10:10:09.273Z,17.21
2022-08-19T10:11:27.323Z,17.45
2022-08-19T10:12:11.344Z,17.13
2022-08-19T10:13:09.303Z,17.24
2022-08-19T10:14:09.291Z,17.37
2022-08-19T10:15:09.304Z,17.46
2022-08-19T10:16:09.310Z,17.34
2022-08-19T10:17:17.977Z,17.52
2022-08-19T10:18:09.223Z,17.72
2022-08-19T10:19:09.225Z,17.55
2022-08-19T10:20:09.246Z,17.36
2022-08-19T10:21:09.219Z,17.54
2022-08-19T10:22:10.025Z,17.27
2022-08-19T10:23:09.363Z,17.73
2022-08-19T10:24:09.319Z,17.64
2022-08-19T10:25:09.281Z,17.56
2022-08-19T10:26:09.306Z,17.56
2022-08-19T10:27:09.376Z,17.44
2022-08-19T10:28:10.652Z,17.23
2022-08-19T10:29:09.593Z,17.4
2022-08-19T10:30:10.022Z,17.59
2022-08-19T10:31:09.492Z,17.65
2022-08-19T10:32:10.054Z,17.66
2022-08-19T10:33:11.354Z,17.45
2022-08-19T10:34:10.079Z,17.48
2022-08-19T10:35:09.543Z,17.64
2022-08-19T10:36:09.596Z,17.37
2022-08-19T10:37:10.867Z,16.82
2022-08-19T10:38:09.251Z,16.99
2022-08-19T10:39:09.574Z,17.01
2022-08-19T10:40:09.275Z,16.61
2022-08-19T10:41:09.217Z,16.43
2022-08-19T10:42:09.284Z,16.66
2022-08-19T10:43:09.293Z,16.98
2022-08-19T10:44:09.302Z,17.12
2022-08-19T10:45:09.296Z,16.96
2022-08-19T10:46:09.580Z,16.85
2022-08-19T10:47:17.190Z,17.09
2022-08-19T10:48:09.310Z,16.85
2022-08-19T10:49:09.323Z,16.97
2022-08-19T10:50:09.326Z,16.76
2022-08-19T10:51:09.339Z,16.2
2022-08-19T10:52:10.272Z,16.1
2022-08-19T10:53:09.763Z,16.14
2022-08-19T10:54:12.422Z,16.05
2022-08-19T10:55:09.231Z,16.06
2022-08-19T10:56:09.279Z,15.98
2022-08-19T10:57:09.381Z,16.46
2022-08-19T10:58:09.525Z,16.66
2022-08-19T10:59:09.283Z,15.97
2022-08-19T11:00:09.297Z,16.25
2022-08-19T11:01:09.270Z,16.62
2022-08-19T11:02:09.300Z,16.71
2022-08-19T11:03:09.498Z,16.87
2022-08-19T11:04:09.315Z,17.14
2022-08-19T11:05:12.645Z,17.11
2022-08-19T11:06:09.339Z,17.27
2022-08-19T11:07:09.233Z,17.15
2022-08-19T11:08:18.109Z,17.41
2022-08-19T11:09:09.245Z,17.23
2022-08-19T11:10:12.936Z,16.89
2022-08-19T11:11:09.363Z,16.53
2022-08-19T11:12:09.372Z,16.61
2022-08-19T11:13:09.294Z,16.02
2022-08-19T11:14:09.278Z,15.52
2022-08-19T11:15:09.289Z,16.02
2022-08-19T11:16:09.313Z,15.98
2022-08-19T11:17:09.304Z,16
2022-08-19T11:18:13.488Z,15.63
2022-08-19T11:19:09.321Z,15.99
2022-08-19T11:20:09.244Z,15.97
2022-08-19T11:21:09.259Z,15.68
2022-08-19T11:22:09.327Z,15.84
2022-08-19T11:23:09.351Z,15.93
2022-08-19T11:24:09.343Z,15.92
2022-08-19T11:25:09.345Z,16.01
2022-08-19T11:26:09.357Z,15.81
2022-08-19T11:27:09.257Z,15.35
2022-08-19T11:28:09.261Z,15.58
2022-08-19T11:29:09.288Z,15.47
2022-08-19T11:30:12.996Z,15.48
2022-08-19T11:31:09.290Z,14.44
2022-08-19T11:32:09.315Z,14.99
2022-08-19T11:33:09.278Z,15.01
2022-08-19T11:34:09.320Z,15.08
2022-08-19T11:35:09.341Z,14.51
2022-08-19T11:36:09.325Z,14.05
2022-08-19T11:37:09.325Z,14.29
2022-08-19T11:38:09.933Z,14.53
2022-08-19T11:39:09.754Z,14.7
2022-08-19T11:40:09.427Z,14.17
2022-08-19T11:41:09.360Z,14.4
2022-08-19T11:42:09.238Z,14.49
2022-08-19T11:43:09.365Z,14.52
2022-08-19T11:44:09.264Z,14.43
2022-08-19T11:45:09.262Z,14.81
2022-08-19T11:46:09.288Z,14.81
2022-08-19T11:47:09.493Z,14.82
2022-08-19T11:48:09.303Z,14.6
2022-08-19T11:49:13.639Z,14.53
2022-08-19T11:50:09.474Z,14.56
2022-08-19T11:51:09.236Z,14.57
2022-08-19T11:52:09.317Z,14.3
2022-08-19T11:53:09.327Z,14.05
2022-08-19T11:54:09.335Z,14.18
2022-08-19T11:55:09.269Z,13.91
2022-08-19T11:56:09.336Z,14.05
2022-08-19T11:57:09.245Z,13.55
2022-08-19T11:58:19.213Z,13.26
2022-08-19T11:59:14.060Z,13.54
2022-08-19T12:00:09.446Z,13.55
2022-08-19T12:01:09.373Z,13.6
2022-08-19T12:02:09.295Z,13.4
2022-08-19T12:03:09.287Z,13.27
2022-08-19T12:04:09.335Z,12.98
2022-08-19T12:05:12.639Z,13.06
2022-08-19T12:06:09.325Z,13.19
2022-08-19T12:07:09.408Z,13.14
2022-08-19T12:08:09.294Z,13.33
2022-08-19T12:09:09.397Z,13.38
2022-08-19T12:10:09.431Z,13.39
2022-08-19T12:11:09.363Z,13.2
2022-08-19T12:12:09.343Z,12.92
2022-08-19T12:13:09.354Z,13.11
2022-08-19T12:14:14.796Z,13.41
2022-08-19T12:15:09.388Z,13.22
2022-08-19T12:16:09.262Z,13.39
2022-08-19T12:17:09.276Z,13.37
2022-08-19T12:18:09.413Z,13.56
2022-08-19T12:19:09.361Z,13.61
2022-08-19T12:20:09.426Z,13.6
2022-08-19T12:21:09.537Z,13.5
2022-08-19T12:22:09.389Z,13.79
2022-08-19T12:23:09.532Z,13.73
2022-08-19T12:24:09.546Z,13.7
2022-08-19T12:25:09.579Z,13.8
2022-08-19T12:26:09.612Z,13.64
2022-08-19T12:27:12.498Z,13.6
2022-08-19T12:28:09.580Z,13.7
2022-08-19T12:29:09.692Z,13.9
2022-08-19T12:30:09.364Z,13.88
2022-08-19T12:31:09.256Z,13.85
2022-08-19T12:32:10.440Z,13.44
2022-08-19T12:33:09.292Z,13.61
2022-08-19T12:34:09.287Z,13.36
2022-08-19T12:35:09.309Z,13.47
2022-08-19T12:36:09.399Z,13.59
2022-08-19T12:37:09.301Z,13.52
2022-08-19T12:38:09.314Z,13.48
2022-08-19T12:39:09.307Z,13.87
2022-08-19T12:40:09.319Z,13.87
2022-08-19T12:41:09.329Z,13.72
2022-08-19T12:42:09.332Z,13.63
2022-08-19T12:43:09.346Z,13.83
2022-08-19T12:44:09.258Z,13.78
2022-08-19T12:45:09.344Z,13.81
2022-08-19T12:46:10.860Z,13.8
2022-08-19T12:47:09.251Z,13.78
2022-08-19T12:48:34.834Z,13.8
2022-08-19T12:49:17.918Z,13.82
2022-08-19T12:50:09.379Z,13.71
2022-08-19T12:51:09.282Z,13.54
2022-08-19T12:52:09.414Z,13.37
2022-08-19T12:53:09.430Z,13.02
2022-08-19T12:54:09.322Z,13.08
2022-08-19T12:55:09.329Z,12.76
2022-08-19T12:56:12.496Z,12.93
2022-08-19T12:57:09.316Z,12.88
2022-08-19T12:58:09.343Z,12.39